Time;durP1;ratioP1;P1;durP2;ratioP2;P2;SDS_P1;SDS_P2;PMS_P1;PMS_P2;Temp;Humidity;BMP_temperature;BMP_pressure;BME280_temperature;BME280_humidity;BME280_pressure;Samples;Min_cycle;Max_cycle;Signal;HPM_P1;HPM_P2
2023/04/02 00:01:35;;;;;;;0.60;0.40;;;;;;;8.97;72.20;63876.88;5013265;28;20202;-54
2023/04/02 00:04:04;;;;;;;0.90;0.30;;;;;;;9.06;73.71;63891.19;5031373;28;20232;-59
2023/04/02 00:06:31;;;;;;;0.47;0.47;;;;;;;9.05;72.22;63887.59;5012935;28;20202;-53
2023/04/02 00:09:12;;;;;;;0.50;0.50;;;;;;;9.10;72.39;63895.56;5031370;28;20238;-53
2023/04/02 00:11:44;;;;;;;0.77;0.40;;;;;;;9.09;73.40;63895.00;5031267;28;20270;-53
2023/04/02 00:14:14;;;;;;;1.70;0.63;;;;;;;8.98;71.55;63882.44;5031132;28;20630;-55
2023/04/02 00:16:40;;;;;;;0.20;0.20;;;;;;;9.05;70.99;63890.63;5031094;28;20197;-53
2023/04/02 00:19:13;;;;;;;1.90;0.57;;;;;;;9.10;69.82;63893.59;5030796;28;20712;-53
2023/04/02 00:21:42;;;;;;;0.60;0.47;;;;;;;9.07;69.69;63890.31;5013143;28;20190;-57
2023/04/02 00:24:15;;;;;;;0.30;0.30;;;;;;;9.06;69.25;63891.19;5030810;28;20283;-57
2023/04/02 00:26:49;;;;;;;0.30;0.30;;;;;;;9.09;69.72;63894.47;5013826;28;20182;-53
2023/04/02 00:29:16;;;;;;;0.53;0.53;;;;;;;9.00;69.09;63885.19;5013496;28;20221;-57
2023/04/02 00:31:46;;;;;;;0.30;0.30;;;;;;;9.13;69.50;63899.38;5030498;28;20189;-56
2023/04/02 00:34:35;;;;;;;1.17;0.50;;;;;;;9.15;68.30;63901.03;5030686;28;20695;-57
2023/04/02 00:37:01;;;;;;;0.40;0.20;;;;;;;9.10;68.28;63893.59;5031412;28;20190;-57
2023/04/02 00:39:30;;;;;;;0.40;0.40;;;;;;;9.07;69.37;63892.28;5034083;28;20214;-53
2023/04/02 00:42:06;;;;;;;1.37;0.70;;;;;;;9.05;69.08;63890.63;5033659;28;20268;-57
2023/04/02 00:44:53;;;;;;;0.40;0.37;;;;;;;9.07;69.03;63892.81;5034449;28;20524;-58
2023/04/02 00:47:23;;;;;;;0.63;0.30;;;;;;;9.01;68.87;63883.75;5033753;28;20212;-58
2023/04/02 00:50:00;;;;;;;4.13;1.90;;;;;;;9.16;72.65;63902.13;5033769;28;20222;-54
2023/04/02 00:52:29;;;;;;;3.17;2.10;;;;;;;9.07;75.25;63895.34;5033538;28;20209;-54
2023/04/02 00:55:05;;;;;;;3.23;2.03;;;;;;;8.86;78.08;63869.34;5033777;28;20210;-58
2023/04/02 00:57:32;;;;;;;2.13;1.50;;;;;;;8.81;79.05;63863.88;5033758;28;20182;-53
2023/04/02 01:00:02;;;;;;;0.50;0.50;;;;;;;8.81;72.05;63863.88;5033360;28;20248;-53
2023/04/02 01:02:31;;;;;;;4.80;1.47;;;;;;;8.79;73.37;63862.22;5034049;28;20269;-53
2023/04/02 01:05:20;;;;;;;1.53;1.43;;;;;;;8.77;78.25;63860.03;5033121;28;20285;-54
2023/04/02 01:08:10;;;;;;;3.70;1.93;;;;;;;8.76;81.61;63861.47;5033685;28;20178;-57
2023/04/02 01:10:48;;;;;;;3.57;1.77;;;;;;;8.49;83.91;63829.47;5033036;28;20726;-58
2023/04/02 01:13:22;;;;;;;2.93;1.47;;;;;;;8.53;83.95;63831.31;5033223;28;20193;-57
2023/04/02 01:16:13;;;;;;;4.70;1.57;;;;;;;8.59;85.61;63842.34;5033366;28;20722;-53
2023/04/02 01:19:17;;;;;;;4.37;2.10;;;;;;;8.54;84.08;63834.38;4992640;28;20237;-54
2023/04/02 01:22:00;;;;;;;3.87;2.27;;;;;;;8.35;86.71;63814.72;4993590;28;20278;-53
2023/04/02 01:24:31;;;;;;;4.83;2.07;;;;;;;8.32;85.63;63808.91;5015422;28;20265;-56
2023/04/02 01:26:58;;;;;;;2.10;1.90;;;;;;;8.14;88.42;63791.75;5033125;28;20202;-56
2023/04/02 01:29:39;;;;;;;2.60;1.93;;;;;;;8.24;86.94;63805.19;5032922;28;20245;-57
2023/04/02 01:32:09;;;;;;;2.80;1.90;;;;;;;8.21;87.98;63799.41;5032961;28;20743;-58
2023/04/02 01:34:36;;;;;;;2.83;1.93;;;;;;;8.19;86.58;63796.69;5032826;28;20202;-54
2023/04/02 01:37:38;;;;;;;1.73;1.63;;;;;;;8.16;85.48;63793.41;5033448;28;20309;-57
2023/04/02 01:40:28;;;;;;;2.17;1.43;;;;;;;7.90;86.85;63763.06;5029614;28;20222;-58
2023/04/02 01:43:27;;;;;;;2.13;1.43;;;;;;;8.20;85.14;63797.78;5033222;28;20642;-56
2023/04/02 01:46:01;;;;;;;1.43;1.27;;;;;;;8.21;85.41;63796.34;5032795;28;20206;-58
2023/04/02 01:48:29;;;;;;;1.27;1.13;;;;;;;8.11;82.71;63791.00;5032366;28;20252;-54
2023/04/02 01:50:58;;;;;;;1.73;1.30;;;;;;;7.83;85.34;63757.94;5032732;28;20222;-56
2023/04/02 01:53:26;;;;;;;1.30;1.20;;;;;;;8.05;85.27;63781.94;5014750;28;20194;-55
2023/04/02 01:55:55;;;;;;;1.40;1.30;;;;;;;8.01;84.32;63777.03;5015027;28;20717;-54
2023/04/02 01:58:27;;;;;;;2.93;1.30;;;;;;;8.34;82.84;63811.09;5032731;28;20194;-58
2023/04/02 02:01:00;;;;;;;1.40;1.20;;;;;;;8.42;83.89;63819.84;5032404;28;20214;-58
2023/04/02 02:03:26;;;;;;;1.17;1.10;;;;;;;8.47;83.38;63827.28;5014964;28;20202;-58
2023/04/02 02:05:52;;;;;;;1.20;1.10;;;;;;;8.57;82.04;63838.19;5032885;28;20216;-57
2023/04/02 02:08:43;;;;;;;2.10;1.43;;;;;;;8.69;82.45;63851.31;5032464;28;20198;-52
2023/04/02 02:11:14;;;;;;;2.57;1.37;;;;;;;8.41;84.84;63818.22;5032588;28;20268;-53
2023/04/02 02:13:45;;;;;;;1.83;1.53;;;;;;;8.30;87.00;63808.72;5032486;28;20719;-53
2023/04/02 02:16:16;;;;;;;2.20;2.00;;;;;;;7.92;88.50;63767.22;5032369;28;20273;-54
2023/04/02 02:18:43;;;;;;;2.57;1.90;;;;;;;7.98;88.80;63771.78;5014631;28;20210;-53
2023/04/02 02:21:09;;;;;;;2.43;2.00;;;;;;;7.97;88.78;63773.22;5032229;28;20244;-53
2023/04/02 02:23:35;;;;;;;4.00;2.33;;;;;;;7.78;89.94;63751.94;5032154;28;20191;-57
2023/04/02 02:26:04;;;;;;;3.10;2.43;;;;;;;7.91;88.53;63766.09;5032618;28;20201;-54
2023/04/02 02:28:35;;;;;;;2.90;2.10;;;;;;;7.63;89.94;63738.59;5032326;28;20201;-56
2023/04/02 02:31:16;;;;;;;2.33;2.03;;;;;;;7.60;91.78;63730.84;5032422;28;20213;-59
2023/04/02 02:33:47;;;;;;;3.23;2.20;;;;;;;7.66;91.33;63736.84;5031830;28;20206;-59
2023/04/02 02:36:32;;;;;;;2.63;1.80;;;;;;;7.63;91.27;63738.59;5032340;28;20186;-54
2023/04/02 02:39:11;;;;;;;3.10;2.33;;;;;;;7.68;92.28;63741.00;5032002;28;20342;-52
2023/04/02 02:41:44;;;;;;;3.43;2.13;;;;;;;7.65;91.17;63738.28;5031994;28;20708;-53
2023/04/02 02:44:09;;;;;;;5.63;3.07;;;;;;;7.40;94.86;63711.53;5031667;28;20218;-53
2023/04/02 02:46:42;;;;;;;2.37;2.10;;;;;;;7.43;94.10;63714.28;5031939;28;20197;-57
2023/04/02 02:49:15;;;;;;;2.67;1.93;;;;;;;7.53;93.51;63725.72;5031839;28;20221;-52
2023/04/02 02:51:48;;;;;;;3.93;2.30;;;;;;;7.64;92.81;63737.19;5031678;28;20178;-57
2023/04/02 02:54:17;;;;;;;3.33;1.93;;;;;;;7.71;91.74;63744.28;5031946;28;20206;-53
2023/04/02 02:56:49;;;;;;;2.73;2.20;;;;;;;7.58;92.33;63731.19;5031540;28;20190;-58
2023/04/02 02:59:17;;;;;;;2.63;1.67;;;;;;;7.57;91.85;63729.56;5030983;28;20292;-57
2023/04/02 03:01:43;;;;;;;2.60;2.37;;;;;;;7.57;92.34;63727.03;5031542;28;20194;-57
2023/04/02 03:04:09;;;;;;;2.97;2.13;;;;;;;7.69;92.70;63742.09;5031445;28;20221;-57
2023/04/02 03:06:35;;;;;;;2.67;2.07;;;;;;;7.61;92.82;63733.91;5014032;28;20186;-57
2023/04/02 03:09:20;;;;;;;5.37;2.20;;;;;;;7.54;94.50;63726.25;5031312;28;20640;-57
2023/04/02 03:11:59;;;;;;;3.17;2.27;;;;;;;7.48;94.93;63720.28;5031783;28;20267;-58
2023/04/02 03:14:42;;;;;;;2.87;2.30;;;;;;;7.51;95.00;63723.53;5031841;28;20289;-57
2023/04/02 03:17:33;;;;;;;3.73;2.30;;;;;;;7.42;94.63;63715.69;5031383;28;20258;-58
2023/04/02 03:20:05;;;;;;;5.80;2.33;;;;;;;7.23;96.86;63689.94;5031404;28;20217;-54
2023/04/02 03:22:45;;;;;;;3.60;2.23;;;;;;;7.50;94.58;63722.47;5013510;28;20194;-53
2023/04/02 03:25:54;;;;;;;2.40;2.20;;;;;;;7.53;94.07;63722.69;5031239;28;20313;-54
2023/04/02 03:28:24;;;;;;;7.47;2.40;;;;;;;7.40;94.86;63711.53;5031412;28;20201;-58
2023/04/02 03:30:57;;;;;;;4.80;2.43;;;;;;;7.52;94.09;63724.63;5013311;28;20653;-58
2023/04/02 03:33:33;;;;;;;2.23;2.03;;;;;;;7.48;95.61;63720.28;5031075;28;20644;-55
2023/04/02 03:36:14;;;;;;;4.10;2.07;;;;;;;7.66;93.86;63736.84;5031812;28;20217;-56
2023/04/02 03:38:45;;;;;;;5.80;2.57;;;;;;;7.46;94.08;63718.09;5030973;28;20208;-53
2023/04/02 03:41:17;;;;;;;6.70;2.40;;;;;;;7.52;94.33;63724.09;5031237;28;20221;-56
2023/04/02 03:43:46;;;;;;;4.03;2.50;;;;;;;7.32;94.90;63702.25;5030953;28;20280;-56
2023/04/02 03:46:27;;;;;;;3.60;2.20;;;;;;;7.46;93.36;63718.09;5030854;28;20244;-53
2023/04/02 03:48:57;;;;;;;4.70;2.40;;;;;;;7.13;94.57;63682.06;5031220;28;20202;-58
2023/04/02 03:51:26;;;;;;;8.03;2.70;;;;;;;7.23;95.38;63694.97;5031023;28;20214;-56
2023/04/02 03:53:52;;;;;;;5.00;2.73;;;;;;;7.13;95.19;63681.56;5031011;28;20194;-57
2023/04/02 03:56:27;;;;;;;4.23;2.43;;;;;;;6.99;96.68;63663.78;5031170;28;20208;-58
2023/04/02 03:59:10;;;;;;;5.17;2.70;;;;;;;6.98;96.80;63665.19;5030635;28;20583;-57
2023/04/02 04:01:44;;;;;;;4.33;2.37;;;;;;;6.89;97.62;63655.91;5031271;28;20194;-56
2023/04/02 04:04:16;;;;;;;14.63;5.17;;;;;;;6.78;99.99;63643.94;5031009;28;20214;-56
2023/04/02 04:06:45;;;;;;;2.97;2.53;;;;;;;7.03;97.16;63668.66;5031243;28;20196;-54
2023/04/02 04:09:34;;;;;;;4.63;1.90;;;;;;;7.07;98.06;63678.03;5030525;28;20727;-53
2023/04/02 04:12:26;;;;;;;3.87;2.30;;;;;;;7.21;96.40;63688.31;5033063;28;20659;-58
2023/04/02 04:14:59;;;;;;;1.73;1.23;;;;;;;7.39;94.96;63709.91;5023676;28;20688;-57
2023/04/02 04:17:33;;;;;;;2.50;1.67;;;;;;;7.28;95.43;63698.44;5034031;28;20247;-58
2023/04/02 04:20:10;;;;;;;2.40;2.20;;;;;;;7.50;94.89;63721.91;5034079;28;20213;-57
2023/04/02 04:22:36;;;;;;;4.77;2.10;;;;;;;7.72;92.77;63743.41;5034196;28;20223;-57
2023/04/02 04:25:06;;;;;;;4.40;2.10;;;;;;;7.72;91.89;63745.91;5034240;28;20206;-57
2023/04/02 04:27:42;;;;;;;6.97;2.20;;;;;;;7.82;91.56;63753.78;5034000;28;20197;-57
2023/04/02 04:30:24;;;;;;;2.03;1.83;;;;;;;7.54;92.54;63726.25;5034419;28;20214;-56
2023/04/02 04:32:57;;;;;;;3.27;2.43;;;;;;;7.37;93.98;63705.22;5033769;28;20178;-53
2023/04/02 04:35:28;;;;;;;5.60;2.80;;;;;;;7.55;92.25;63727.38;5033694;28;20221;-57
2023/04/02 04:38:32;;;;;;;5.00;2.93;;;;;;;7.48;92.78;63717.75;5033672;28;20244;-57
2023/04/02 04:41:09;;;;;;;3.83;2.90;;;;;;;7.47;92.42;63718.63;5034456;28;20222;-52
2023/04/02 04:44:06;;;;;;;6.10;3.10;;;;;;;7.41;93.10;63712.09;5033539;28;20189;-51
2023/04/02 04:46:41;;;;;;;2.90;2.37;;;;;;;7.34;93.95;63705.00;5033956;28;20226;-52
2023/04/02 04:49:21;;;;;;;4.90;2.50;;;;;;;7.40;93.92;63714.06;5033604;28;20267;-57
2023/04/02 04:51:52;;;;;;;3.37;2.50;;;;;;;7.39;94.55;63710.44;5034011;28;20186;-56
2023/04/02 04:54:19;;;;;;;4.47;2.80;;;;;;;7.53;93.28;63725.19;5033393;28;20655;-54
2023/04/02 04:56:54;;;;;;;6.10;3.33;;;;;;;7.14;95.83;63683.19;5033711;28;20195;-54
2023/04/02 04:59:28;;;;;;;2.37;2.17;;;;;;;7.43;93.64;63714.28;5033442;28;20221;-57
2023/04/02 05:02:06;;;;;;;3.83;2.70;;;;;;;7.15;96.25;63686.75;5033382;28;20199;-59
2023/04/02 05:04:37;;;;;;;5.80;2.17;;;;;;;6.74;99.35;63640.13;5033233;28;20210;-59
2023/04/02 05:07:18;;;;;;;4.97;2.17;;;;;;;7.22;95.25;63691.34;5033228;28;20655;-54
2023/04/02 05:10:12;;;;;;;4.33;2.10;;;;;;;7.06;97.81;63673.91;5033214;28;20214;-53
2023/04/02 05:12:45;;;;;;;2.20;2.00;;;;;;;7.23;96.44;63692.47;5033429;28;20652;-55
2023/04/02 05:15:17;;;;;;;2.23;2.03;;;;;;;7.50;94.36;63719.94;5033183;28;20773;-54
2023/04/02 05:17:47;;;;;;;3.83;2.00;;;;;;;7.42;94.82;63710.66;5015386;28;20193;-58
2023/04/02 05:20:23;;;;;;;8.60;3.97;;;;;;;7.13;97.25;63681.56;5033046;28;20277;-58
2023/04/02 05:23:15;;;;;;;2.97;2.07;;;;;;;7.38;95.58;63706.84;5032208;28;20194;-58
2023/04/02 05:26:05;;;;;;;4.90;2.40;;;;;;;7.52;93.99;63724.63;5033279;28;20881;-57
2023/04/02 05:28:39;;;;;;;3.63;2.57;;;;;;;7.57;94.06;63729.56;5015291;28;20225;-58
2023/04/02 05:31:11;;;;;;;3.97;2.53;;;;;;;7.73;93.32;63749.53;5032812;28;20253;-58
2023/04/02 05:33:38;;;;;;;4.53;2.10;;;;;;;7.78;92.93;63749.41;5033156;28;20178;-59
2023/04/02 05:36:10;;;;;;;4.07;2.40;;;;;;;7.92;90.75;63767.75;5033128;28;20195;-57
2023/04/02 05:38:37;;;;;;;5.10;3.07;;;;;;;7.90;91.77;63765.03;5032708;28;20186;-57
2023/04/02 05:41:19;;;;;;;4.37;2.70;;;;;;;8.02;90.66;63778.66;5032950;28;20268;-58
2023/04/02 05:43:47;;;;;;;3.10;2.17;;;;;;;8.23;89.06;63801.59;5032764;28;20236;-57
2023/04/02 05:46:26;;;;;;;4.80;2.53;;;;;;;8.33;88.47;63811.97;5032683;28;20229;-57
2023/04/02 05:48:58;;;;;;;3.70;2.83;;;;;;;8.60;86.40;63838.97;5032661;28;20182;-55
2023/04/02 05:51:33;;;;;;;6.13;3.10;;;;;;;8.46;86.97;63829.22;5032470;28;20228;-58
2023/04/02 05:54:02;;;;;;;4.73;2.73;;;;;;;8.52;87.07;63832.19;5032819;28;20744;-53
2023/04/02 05:56:41;;;;;;;6.00;2.90;;;;;;;8.70;86.14;63851.84;5032390;28;20251;-53
2023/04/02 05:59:18;;;;;;;9.50;4.60;;;;;;;8.47;87.32;63824.75;5015547;28;20268;-56
2023/04/02 06:02:29;;;;;;;4.17;2.80;;;;;;;8.52;85.05;63827.72;5032479;28;20190;-53
2023/04/02 06:05:19;;;;;;;2.53;2.27;;;;;;;8.72;85.11;63851.53;5024112;28;20230;-56
2023/04/02 06:07:55;;;;;;;5.00;2.70;;;;;;;8.73;83.94;63855.69;5032571;28;20187;-56
2023/04/02 06:10:27;;;;;;;4.33;2.70;;;;;;;8.78;84.58;63858.63;5032329;28;20229;-57
2023/04/02 06:13:02;;;;;;;3.97;2.60;;;;;;;8.84;83.97;63867.72;5032577;28;20233;-55
2023/04/02 06:15:29;;;;;;;3.17;2.20;;;;;;;8.62;84.29;63843.66;5032464;28;20565;-54
2023/04/02 06:18:07;;;;;;;4.47;2.40;;;;;;;8.96;82.93;63882.78;5014579;28;20186;-57
2023/04/02 06:20:32;;;;;;;5.57;2.20;;;;;;;9.11;82.12;63894.16;5032380;28;20209;-58
2023/04/02 06:23:15;;;;;;;3.40;2.70;;;;;;;9.20;82.59;63903.97;5031843;28;20197;-53
2023/04/02 06:26:17;;;;;;;3.27;2.43;;;;;;;9.39;81.48;63924.75;5032348;28;20202;-59
2023/04/02 06:29:03;;;;;;;5.90;2.37;;;;;;;9.55;81.42;63941.69;5032001;28;20182;-58
2023/04/02 06:31:42;;;;;;;3.77;2.50;;;;;;;9.58;80.62;63945.53;5031708;28;20245;-56
2023/04/02 06:34:19;;;;;;;5.23;3.10;;;;;;;9.69;79.84;63960.06;5031790;28;20214;-57
2023/04/02 06:36:46;;;;;;;7.10;3.17;;;;;;;9.85;78.73;63977.03;5031691;28;20278;-54
2023/04/02 06:39:18;;;;;;;4.90;3.40;;;;;;;9.91;80.65;63981.06;5031862;28;20218;-52
2023/04/02 06:41:44;;;;;;;4.17;3.07;;;;;;;9.97;80.47;63990.69;5031803;28;20228;-58
2023/04/02 06:44:22;;;;;;;7.60;4.00;;;;;;;10.10;77.52;64004.94;5031706;28;20249;-56
2023/04/02 06:46:57;;;;;;;5.27;3.67;;;;;;;10.20;77.58;64012.81;5032159;28;20192;-57
2023/04/02 06:49:23;;;;;;;6.33;3.77;;;;;;;10.24;75.37;64016.66;5031613;28;20213;-58
2023/04/02 06:51:53;;;;;;;7.03;4.27;;;;;;;10.18;76.83;64010.09;5031693;28;20682;-54
2023/04/02 06:54:19;;;;;;;4.63;3.50;;;;;;;10.34;75.68;64027.59;5031833;28;20202;-53
2023/04/02 06:56:50;;;;;;;4.40;3.63;;;;;;;10.16;74.81;64005.91;5031890;28;20206;-52
2023/04/02 06:59:17;;;;;;;5.47;3.90;;;;;;;10.21;74.93;64013.91;5031350;28;20198;-54
2023/04/02 07:01:47;;;;;;;6.27;4.43;;;;;;;10.44;73.98;64036.56;5013865;28;20252;-54
2023/04/02 07:04:13;;;;;;;4.33;3.17;;;;;;;10.67;73.15;64064.25;5031527;28;20220;-57
2023/04/02 07:06:38;;;;;;;6.13;3.53;;;;;;;10.90;72.92;64086.38;5031757;28;20194;-58
2023/04/02 07:09:05;;;;;;;7.00;4.23;;;;;;;10.95;71.89;64092.38;5031336;28;20202;-57
2023/04/02 07:11:31;;;;;;;5.27;4.07;;;;;;;10.64;72.65;64060.44;5013373;28;20230;-56
2023/04/02 07:13:57;;;;;;;7.07;4.10;;;;;;;10.67;72.50;64064.25;5031211;28;20242;-58
2023/04/02 07:16:25;;;;;;;5.77;3.57;;;;;;;10.67;73.38;64063.69;5031495;28;20226;-58
2023/04/02 07:18:52;;;;;;;7.33;4.10;;;;;;;10.26;72.79;64016.84;5031954;28;20621;-58
2023/04/02 07:21:17;;;;;;;7.70;3.57;;;;;;;10.24;73.34;64017.19;5032051;28;20213;-58
2023/04/02 07:23:43;;;;;;;7.23;4.30;;;;;;;10.63;73.59;64059.31;5031430;28;20193;-54
2023/04/02 07:26:13;;;;;;;6.87;3.90;;;;;;;10.79;72.36;64079.91;5031570;28;20194;-54
2023/04/02 07:28:39;;;;;;;6.00;3.83;;;;;;;10.91;72.20;64093.03;5013638;28;20194;-54
2023/04/02 07:31:15;;;;;;;5.43;3.20;;;;;;;11.03;72.33;64100.59;5031126;28;20570;-55
2023/04/02 07:33:41;;;;;;;5.57;3.80;;;;;;;11.05;71.38;64105.31;5031204;28;20197;-58
2023/04/02 07:36:06;;;;;;;5.93;4.07;;;;;;;11.14;71.96;64115.16;5013409;28;20563;-58
2023/04/02 07:38:31;;;;;;;6.37;4.00;;;;;;;11.28;71.00;64130.50;5030993;28;20190;-57
2023/04/02 07:40:57;;;;;;;4.67;3.50;;;;;;;11.47;70.97;64151.31;5031076;28;20672;-57
2023/04/02 07:43:22;;;;;;;6.93;3.10;;;;;;;11.35;70.28;64138.16;5013096;28;20198;-57
2023/04/02 07:45:49;;;;;;;4.53;3.37;;;;;;;11.33;71.06;64138.50;5032638;28;20231;-58
2023/04/02 07:48:15;;;;;;;7.37;3.50;;;;;;;11.43;68.79;64149.44;5019851;28;20193;-55
2023/04/02 07:50:40;;;;;;;2.77;2.40;;;;;;;11.44;69.56;64144.94;5038599;28;20213;-54
2023/04/02 07:53:07;;;;;;;4.60;2.53;;;;;;;11.57;69.27;64164.78;5037606;28;20268;-53
2023/04/02 07:55:33;;;;;;;6.80;2.80;;;;;;;11.86;67.22;64191.00;5037467;28;20304;-55
2023/04/02 07:57:58;;;;;;;4.50;2.67;;;;;;;11.88;66.24;64197.69;5037549;28;20255;-54
2023/04/02 08:00:27;;;;;;;3.20;2.30;;;;;;;12.01;67.89;64211.94;5037266;28;20244;-54
2023/04/02 08:02:53;;;;;;;2.13;1.47;;;;;;;12.01;64.23;64209.97;5037070;28;20674;-54
2023/04/02 08:05:18;;;;;;;3.83;1.73;;;;;;;11.99;64.69;64205.25;5037569;28;20221;-58
2023/04/02 08:07:54;;;;;;;2.53;1.60;;;;;;;12.10;64.88;64219.81;5037188;28;20185;-59
2023/04/02 08:10:20;;;;;;;6.53;2.07;;;;;;;12.28;66.85;64236.50;5037192;28;20221;-58
2023/04/02 08:12:45;;;;;;;3.07;0.87;;;;;;;12.23;59.33;64236.59;5037014;28;20201;-54
2023/04/02 08:15:15;;;;;;;6.57;1.10;;;;;;;12.43;59.14;64256.00;5037072;28;20710;-55
2023/04/02 08:17:42;;;;;;;0.73;0.73;;;;;;;12.55;59.44;64271.69;5019335;28;20192;-54
2023/04/02 08:20:14;;;;;;;1.53;1.20;;;;;;;12.79;60.49;64294.38;5036834;28;20217;-53
2023/04/02 08:22:39;;;;;;;0.70;0.70;;;;;;;12.94;57.36;64308.31;5037168;28;20212;-56
2023/04/02 08:25:05;;;;;;;0.60;0.50;;;;;;;12.90;55.73;64307.03;5036935;28;20688;-54
2023/04/02 08:27:31;;;;;;;0.60;0.40;;;;;;;12.71;54.99;64288.69;5037161;28;20190;-57
2023/04/02 08:29:56;;;;;;;2.50;0.70;;;;;;;12.71;55.13;64285.63;5036869;28;20213;-58
2023/04/02 08:32:23;;;;;;;0.87;0.70;;;;;;;12.76;56.15;64288.56;5019170;28;20190;-59
2023/04/02 08:34:48;;;;;;;0.90;0.50;;;;;;;12.89;55.05;64305.38;5037096;28;20206;-54
2023/04/02 08:37:13;;;;;;;2.20;0.60;;;;;;;12.88;53.82;64304.81;5037399;28;20578;-55
2023/04/02 08:39:40;;;;;;;0.70;0.63;;;;;;;12.99;53.83;64316.88;5018928;28;20210;-54
2023/04/02 08:42:08;;;;;;;0.73;0.50;;;;;;;12.78;53.44;64296.38;5036716;28;20204;-54
2023/04/02 08:44:52;;;;;;;0.60;0.60;;;;;;;12.85;53.56;64301.53;5036731;28;20210;-52
2023/04/02 08:47:22;;;;;;;1.00;0.80;;;;;;;13.13;54.12;64331.72;5037172;28;20268;-53
2023/04/02 08:50:00;;;;;;;2.33;1.37;;;;;;;13.23;52.42;64343.25;5036666;28;20249;-57
2023/04/02 08:52:31;;;;;;;1.77;0.90;;;;;;;13.39;51.19;64357.72;5036785;28;20194;-57
2023/04/02 08:54:59;;;;;;;3.50;0.70;;;;;;;13.45;50.84;64367.38;5036614;28;20296;-58
2023/04/02 08:57:36;;;;;;;1.20;1.10;;;;;;;13.81;50.99;64405.81;5034508;28;20213;-57
2023/04/02 09:00:35;;;;;;;1.03;0.90;;;;;;;13.41;50.76;64363.00;5033300;28;20214;-53
2023/04/02 09:03:23;;;;;;;4.30;1.10;;;;;;;13.54;51.11;64373.63;5033107;28;20339;-53
2023/04/02 09:05:50;;;;;;;1.33;1.00;;;;;;;13.76;49.37;64403.41;5033441;28;20380;-58
2023/04/02 09:08:26;;;;;;;0.70;0.67;;;;;;;13.90;48.48;64413.16;5033194;28;20225;-58
2023/04/02 09:11:23;;;;;;;1.73;0.73;;;;;;;14.37;48.70;64466.78;5032825;28;20229;-58
2023/04/02 09:14:00;;;;;;;1.43;0.90;;;;;;;15.01;48.89;64537.69;5017316;28;20267;-53
2023/04/02 09:16:43;;;;;;;0.45;0.45;;;;;;;14.97;47.03;64533.28;5033485;28;20568;-54
2023/04/02 09:19:25;;;;;;;0.87;0.80;;;;;;;15.08;46.93;64545.41;5032938;28;20210;-56
2023/04/02 09:22:19;;;;;;;0.73;0.60;;;;;;;15.17;44.48;64552.19;5033337;28;20300;-54
2023/04/02 09:24:53;;;;;;;0.93;0.63;;;;;;;14.95;45.01;64531.09;5032900;28;20218;-58
2023/04/02 09:27:21;;;;;;;2.00;0.70;;;;;;;15.69;44.91;64609.41;5033498;28;20511;-59
2023/04/02 09:29:51;;;;;;;0.70;0.60;;;;;;;15.52;43.07;64590.16;5032597;28;20618;-52
2023/04/02 09:32:45;;;;;;;0.95;0.60;;;;;;;15.60;42.91;64599.50;5032868;28;20590;-60
2023/04/02 09:35:11;;;;;;;0.73;0.60;;;;;;;15.34;43.09;64573.44;5014923;28;20230;-56
2023/04/02 09:37:38;;;;;;;0.60;0.50;;;;;;;15.71;43.87;64611.06;5014953;28;20190;-58
2023/04/02 09:40:16;;;;;;;0.70;0.68;;;;;;;15.74;43.15;64616.88;5015314;28;20279;-53
2023/04/02 09:42:41;;;;;;;2.38;0.55;;;;;;;16.13;44.98;64659.81;5032659;28;20237;-54
2023/04/02 09:45:22;;;;;;;0.70;0.70;;;;;;;15.56;45.15;64594.56;5032733;28;20222;-54
2023/04/02 09:47:50;;;;;;;1.25;0.75;;;;;;;15.08;46.63;64544.84;5032594;28;20186;-54
2023/04/02 09:50:26;;;;;;;1.20;0.80;;;;;;;15.40;47.10;64577.50;5032479;28;20226;-59
2023/04/02 09:52:51;;;;;;;5.00;2.95;;;;;;;15.05;45.19;64542.09;5032918;28;20209;-54
2023/04/02 09:55:21;;;;;;;1.08;0.88;;;;;;;15.64;47.24;64603.34;5032324;28;20206;-54
2023/04/02 09:57:48;;;;;;;2.17;0.90;;;;;;;16.02;45.48;64644.63;5032354;28;20197;-54
2023/04/02 10:00:17;;;;;;;291.98;93.80;;;;;;;15.96;47.07;64639.09;5032614;28;20698;-58
2023/04/02 10:02:45;;;;;;;138.40;60.78;;;;;;;15.80;46.69;64620.94;5032358;28;20730;-57
2023/04/02 10:05:23;;;;;;;2.38;1.90;;;;;;;15.87;46.69;64628.66;5032204;28;20251;-58
2023/04/02 10:07:52;;;;;;;2.10;1.52;;;;;;;15.52;45.93;64592.69;5032291;28;20194;-58
2023/04/02 10:10:21;;;;;;;30.25;16.70;;;;;;;15.58;46.99;64599.84;5031764;28;20214;-59
2023/04/02 10:13:13;;;;;;;5.72;4.00;;;;;;;15.87;44.99;64626.13;5032362;28;20197;-57
2023/04/02 10:15:48;;;;;;;6.65;4.50;;;;;;;15.91;46.57;64635.59;5031433;28;20267;-58
2023/04/02 10:18:22;;;;;;;0.70;0.70;;;;;;;16.63;44.58;64712.34;5032141;28;20216;-58
2023/04/02 10:20:51;;;;;;;0.90;0.82;;;;;;;17.14;46.29;64767.94;5032267;28;20210;-59
2023/04/02 10:23:18;;;;;;;1.73;0.50;;;;;;;16.73;41.12;64720.78;5031868;28;20313;-57
2023/04/02 10:26:00;;;;;;;3.22;1.77;;;;;;;16.93;40.69;64747.34;5014306;28;20727;-58
2023/04/02 10:28:31;;;;;;;1.40;0.60;;;;;;;17.71;40.25;64830.22;5032102;28;20210;-58
2023/04/02 10:31:21;;;;;;;1.00;0.90;;;;;;;17.80;40.26;64842.69;5032179;28;20313;-58
2023/04/02 10:33:50;;;;;;;0.88;0.70;;;;;;;17.33;39.10;64788.34;5031834;28;20190;-58
2023/04/02 10:36:41;;;;;;;1.42;0.95;;;;;;;17.91;39.12;64854.81;5032064;28;20225;-58
2023/04/02 10:39:17;;;;;;;3.08;0.60;;;;;;;17.04;40.34;64754.38;5031882;28;20268;-53
2023/04/02 10:42:12;;;;;;;1.10;0.80;;;;;;;16.38;42.52;64684.25;5031493;28;20198;-54
2023/04/02 10:45:20;;;;;;;0.75;0.75;;;;;;;17.15;44.11;64769.03;5031735;28;20267;-57
2023/04/02 10:48:27;;;;;;;1.30;0.77;;;;;;;17.10;41.77;64763.00;4976778;28;20691;-58
2023/04/02 10:51:11;;;;;;;2.95;0.68;;;;;;;16.86;41.77;64736.56;5019434;28;20237;-58
2023/04/02 10:53:42;;;;;;;0.60;0.60;;;;;;;16.60;42.46;64708.47;5031606;28;20703;-57
2023/04/02 10:56:11;;;;;;;0.65;0.40;;;;;;;17.65;42.62;64826.16;5032030;28;20194;-58
2023/04/02 10:58:46;;;;;;;0.73;0.47;;;;;;;18.22;39.99;64886.44;5013644;28;20193;-58
2023/04/02 11:01:22;;;;;;;1.00;0.57;;;;;;;17.73;40.44;64832.44;5031394;28;20645;-57
2023/04/02 11:03:57;;;;;;;1.13;0.70;;;;;;;17.34;41.45;64789.97;5031475;28;20251;-62
2023/04/02 11:06:27;;;;;;;1.45;0.90;;;;;;;17.24;41.86;64778.97;5031888;28;20197;-54
2023/04/02 11:09:05;;;;;;;1.33;1.05;;;;;;;17.09;42.77;64759.34;5031260;28;20745;-57
2023/04/02 11:11:41;;;;;;;15.52;10.07;;;;;;;16.82;43.78;64732.16;5013520;28;20260;-59
2023/04/02 11:14:12;;;;;;;1.85;0.80;;;;;;;17.24;43.22;64778.41;5031248;28;20202;-60
2023/04/02 11:16:38;;;;;;;2.35;1.77;;;;;;;17.61;41.96;64819.75;5031886;28;20327;-58
2023/04/02 11:19:16;;;;;;;0.98;0.80;;;;;;;17.67;42.22;64825.81;5031300;28;20695;-57
2023/04/02 11:22:05;;;;;;;4.03;0.50;;;;;;;17.71;40.16;64830.22;5030919;28;20254;-54
2023/04/02 11:24:46;;;;;;;1.25;0.90;;;;;;;17.63;40.82;64824.50;5001109;28;20229;-55
2023/04/02 11:27:28;;;;;;;2.38;0.90;;;;;;;17.40;40.88;64796.03;5031327;28;20566;-53
2023/04/02 11:30:16;;;;;;;0.50;0.40;;;;;;;16.92;41.86;64743.16;5031011;28;20680;-53
2023/04/02 11:32:46;;;;;;;0.80;0.77;;;;;;;17.21;41.68;64773.09;5030964;28;20194;-54
2023/04/02 11:35:30;;;;;;;0.40;0.40;;;;;;;17.85;39.87;64845.66;5031145;28;20214;-57
2023/04/02 11:38:20;;;;;;;0.80;0.70;;;;;;;18.41;41.62;64906.84;5031015;28;20178;-54
2023/04/02 11:40:53;;;;;;;1.77;0.88;;;;;;;18.27;41.93;64891.41;4980698;28;20222;-54
2023/04/02 11:43:36;;;;;;;2.22;1.60;;;;;;;17.61;40.30;64819.75;5031038;28;20186;-55
2023/04/02 11:46:27;;;;;;;1.13;0.52;;;;;;;17.45;40.08;64799.00;5031005;28;20240;-58
2023/04/02 11:48:54;;;;;;;2.88;0.57;;;;;;;16.53;40.64;64701.31;5030502;28;20186;-56
2023/04/02 11:51:19;;;;;;;0.88;0.88;;;;;;;16.85;42.37;64736.00;5030591;28;20233;-58
2023/04/02 11:53:45;;;;;;;0.38;0.38;;;;;;;17.15;41.52;64768.50;5030634;28;20240;-58
2023/04/02 11:56:27;;;;;;;0.47;0.40;;;;;;;16.93;41.28;64744.28;5031314;28;20202;-58
2023/04/02 11:59:16;;;;;;;0.57;0.57;;;;;;;16.85;41.32;64735.47;5031041;28;20263;-57
2023/04/02 12:02:00;;;;;;;0.70;0.70;;;;;;;16.88;41.38;64736.22;5031017;28;20198;-59
2023/04/02 12:05:02;;;;;;;3.20;0.63;;;;;;;17.27;40.55;64784.81;5030862;28;20206;-53
2023/04/02 12:07:45;;;;;;;0.52;0.52;;;;;;;17.38;40.49;64794.41;5030878;28;20190;-55
2023/04/02 12:10:17;;;;;;;0.60;0.50;;;;;;;16.11;40.99;64654.50;5030521;28;20324;-54
2023/04/02 12:12:43;;;;;;;1.10;0.43;;;;;;;16.01;41.81;64641.53;5030725;28;20217;-54